Terminal Aerodrome Forecast
Issued by NWS

Home | Current Version | Previous Version | Text Only | Print | Product List | Glossary On
Versions: 1 2 3 4 5 6 7 8 9 10 11 12 13 14 15 16 17 18 19 20 21 22 23 24 25 26 27 28 29 30 31 32 33 34 35 36 37 38 39 40 41 42 43 44 45 46 47 48 49 50
000
FTUS45 KCYS 181250 AAB
TAFLAR
TAF AMD
KLAR 181250Z 1813/1912 33008KT 3SM -SN BR OVC012
      TEMPO 1813/1816 3/4SM -SN BR VV008
     FM181800 34010KT 5SM -SHSN BKN005 OVC015
     FM190100 33010G18KT 2SM -SN BR OVC008=

USA.gov is the U.S. government's official web portal to all federal, state and local government web resources and services.